createdAt,value
2022-12-12T00:00:18.678Z,23.85
2022-12-12T00:02:45.314Z,21.73
2022-12-12T00:05:14.987Z,19.15
2022-12-12T00:07:41.601Z,16.65
2022-12-12T00:10:08.560Z,16.30
2022-12-12T00:12:35.425Z,15.95
2022-12-12T00:15:01.809Z,16.35
2022-12-12T00:17:28.268Z,16.92
2022-12-12T00:19:54.791Z,12.57
2022-12-12T00:22:21.280Z,16.77
2022-12-12T00:24:47.741Z,12.73
2022-12-12T00:27:14.163Z,16.35
2022-12-12T00:29:40.875Z,14.65
2022-12-12T00:32:07.254Z,20.05
2022-12-12T00:34:33.633Z,16.40
2022-12-12T00:37:00.017Z,12.75
2022-12-12T00:39:26.398Z,16.35
2022-12-12T00:41:54.509Z,17.52
2022-12-12T00:44:21.033Z,15.25
2022-12-12T00:46:47.447Z,16.95
2022-12-12T00:49:14.518Z,16.08
2022-12-12T00:51:40.901Z,17.77
2022-12-12T00:54:07.304Z,16.15
2022-12-12T00:56:33.743Z,16.98
2022-12-12T00:59:01.404Z,18.00
2022-12-12T01:01:28.778Z,17.85
2022-12-12T01:03:55.273Z,20.90
2022-12-12T01:06:21.934Z,17.40
2022-12-12T01:08:48.412Z,17.85
2022-12-12T01:11:15.142Z,18.58
2022-12-12T01:13:42.542Z,18.27
2022-12-12T01:16:09.509Z,18.40
2022-12-12T01:18:36.695Z,16.35
2022-12-12T01:21:03.726Z,16.05
2022-12-12T01:23:30.254Z,16.50
2022-12-12T01:26:00.687Z,19.85
2022-12-12T01:28:27.127Z,18.10
2022-12-12T01:30:53.541Z,18.95
2022-12-12T01:33:20.298Z,16.45
2022-12-12T01:35:46.805Z,16.10
2022-12-12T01:38:13.498Z,19.42
2022-12-12T01:40:39.874Z,16.42
2022-12-12T01:43:10.648Z,20.35
2022-12-12T01:46:09.716Z,18.38
2022-12-12T01:48:39.544Z,20.15
2022-12-12T01:51:08.258Z,16.60
2022-12-12T01:53:34.781Z,19.77
2022-12-12T01:56:02.382Z,19.27
2022-12-12T01:58:30.174Z,20.25
2022-12-12T02:00:56.610Z,23.88
2022-12-12T02:03:23.158Z,16.15
2022-12-12T02:05:53.204Z,18.60
2022-12-12T02:08:21.983Z,24.77
2022-12-12T02:10:48.592Z,20.05
2022-12-12T02:13:16.839Z,22.20
2022-12-12T02:15:43.211Z,21.02
2022-12-12T02:18:12.652Z,23.42
2022-12-12T02:20:45.648Z,22.25
2022-12-12T02:23:14.995Z,25.42
2022-12-12T02:26:07.685Z,22.50
2022-12-12T02:28:43.843Z,22.67
2022-12-12T02:31:29.138Z,23.85
2022-12-12T02:33:59.483Z,23.33
2022-12-12T02:36:29.591Z,23.33
2022-12-12T02:39:02.136Z,25.05
2022-12-12T02:41:37.557Z,24.27
2022-12-12T02:44:03.914Z,25.58
2022-12-12T02:46:38.117Z,27.60
2022-12-12T02:51:32.317Z,26.15
2022-12-12T02:53:59.704Z,24.02
2022-12-12T02:56:44.908Z,28.10
2022-12-12T02:59:17.168Z,31.80
2022-12-12T03:01:46.321Z,27.50
2022-12-12T03:04:48.226Z,27.65
2022-12-12T03:07:39.837Z,31.35
2022-12-12T03:10:16.576Z,29.08
2022-12-12T03:12:48.715Z,34.95
2022-12-12T03:15:18.363Z,28.80
2022-12-12T03:17:48.396Z,28.70
2022-12-12T03:20:17.866Z,32.78
2022-12-12T03:22:44.232Z,33.10
2022-12-12T03:25:23.403Z,31.27
2022-12-12T03:28:01.125Z,33.78
2022-12-12T03:30:29.893Z,30.33
2022-12-12T03:32:59.489Z,31.40
2022-12-12T03:35:32.271Z,30.20
2022-12-12T03:38:02.100Z,30.25
2022-12-12T03:40:31.503Z,29.98
2022-12-12T03:43:13.298Z,36.65
2022-12-12T03:45:45.102Z,31.20
2022-12-12T03:48:20.129Z,30.63
2022-12-12T03:50:55.437Z,34.33
2022-12-12T03:53:32.799Z,33.28
2022-12-12T03:56:05.913Z,35.25
2022-12-12T03:58:35.549Z,34.50
2022-12-12T04:01:04.678Z,32.72
2022-12-12T04:03:40.205Z,39.60
2022-12-12T04:06:29.661Z,38.13
2022-12-12T04:09:17.465Z,35.90
2022-12-12T04:12:13.007Z,31.45
2022-12-12T04:14:41.842Z,27.67
2022-12-12T04:17:13.427Z,27.13
2022-12-12T04:20:01.320Z,33.00
2022-12-12T04:22:49.398Z,38.20
2022-12-12T04:25:31.980Z,43.40
2022-12-12T04:28:01.737Z,32.17
2022-12-12T04:30:29.825Z,34.85
2022-12-12T04:33:08.731Z,30.40
2022-12-12T04:35:36.967Z,28.75
2022-12-12T04:38:05.397Z,28.55
2022-12-12T04:40:36.215Z,25.42
2022-12-12T04:43:04.438Z,22.77
2022-12-12T04:45:34.312Z,35.00
2022-12-12T04:48:01.886Z,22.75
2022-12-12T04:50:29.511Z,31.35
2022-12-12T04:52:56.862Z,25.65
2022-12-12T04:55:34.064Z,28.20
2022-12-12T04:58:01.794Z,26.00
2022-12-12T05:03:20.094Z,26.55
2022-12-12T05:05:57.957Z,33.67
2022-12-12T05:08:29.900Z,32.28
2022-12-12T05:10:57.319Z,27.83
2022-12-12T05:13:27.285Z,36.50
2022-12-12T05:15:55.359Z,31.15
2022-12-12T05:18:22.065Z,33.45
2022-12-12T05:20:48.706Z,32.47
2022-12-12T05:23:15.088Z,35.83
2022-12-12T05:25:41.570Z,35.10
2022-12-12T05:28:08.061Z,31.42
2022-12-12T05:30:34.734Z,29.58
2022-12-12T05:33:01.165Z,23.33
2022-12-12T05:35:27.877Z,22.10
2022-12-12T05:37:54.635Z,28.05
2022-12-12T05:40:21.882Z,29.42
2022-12-12T05:42:48.756Z,24.27
2022-12-12T05:45:15.481Z,21.25
2022-12-12T05:47:42.064Z,23.13
2022-12-12T05:50:08.662Z,16.85
2022-12-12T05:52:35.114Z,21.85
2022-12-12T05:55:01.471Z,19.67
2022-12-12T05:57:27.892Z,17.17
2022-12-12T05:59:54.270Z,21.25
2022-12-12T06:02:20.814Z,17.67
2022-12-12T06:04:47.388Z,19.08
2022-12-12T06:07:13.773Z,19.58
2022-12-12T06:09:40.345Z,20.17
2022-12-12T06:12:07.756Z,19.17
2022-12-12T06:14:34.256Z,19.73
2022-12-12T06:17:00.738Z,17.45
2022-12-12T06:19:27.135Z,15.27
2022-12-12T06:21:53.622Z,21.40
2022-12-12T06:24:20.085Z,18.63
2022-12-12T06:26:46.465Z,20.67
2022-12-12T06:29:14.730Z,19.20
2022-12-12T06:31:41.234Z,18.45
2022-12-12T06:34:07.661Z,19.95
2022-12-12T06:36:34.091Z,21.75
2022-12-12T06:39:01.057Z,29.23
2022-12-12T06:41:29.150Z,24.70
2022-12-12T06:43:55.910Z,26.90
2022-12-12T06:46:23.886Z,24.85
2022-12-12T06:48:50.419Z,24.45
2022-12-12T06:51:19.189Z,20.60
2022-12-12T06:53:45.760Z,19.45
2022-12-12T06:56:14.003Z,23.23
2022-12-12T06:58:40.482Z,23.77
2022-12-12T07:01:07.533Z,23.25
2022-12-12T07:03:34.009Z,21.80
2022-12-12T07:06:00.830Z,21.75
2022-12-12T07:08:28.310Z,23.50
2022-12-12T07:10:55.218Z,21.70
2022-12-12T07:13:21.959Z,22.30
2022-12-12T07:15:49.828Z,19.50
2022-12-12T07:18:17.221Z,25.27
2022-12-12T07:20:44.266Z,29.10
2022-12-12T07:23:11.039Z,24.95
2022-12-12T07:25:38.668Z,23.88
2022-12-12T07:28:05.346Z,22.90
2022-12-12T07:30:31.899Z,27.52
2022-12-12T07:32:58.350Z,28.35
2022-12-12T07:35:32.738Z,32.63
2022-12-12T07:37:59.306Z,29.52
2022-12-12T07:40:25.773Z,26.70
2022-12-12T07:42:52.207Z,30.05
2022-12-12T07:45:18.897Z,29.80
2022-12-12T07:47:45.497Z,29.17
2022-12-12T07:50:12.263Z,30.30
2022-12-12T07:52:38.696Z,27.40
2022-12-12T07:55:05.344Z,27.25
2022-12-12T07:57:33.391Z,33.17
2022-12-12T08:00:00.160Z,28.25
2022-12-12T08:02:26.541Z,30.67
2022-12-12T08:04:53.039Z,30.65
2022-12-12T08:07:19.445Z,39.85
2022-12-12T08:09:45.949Z,35.58
2022-12-12T08:12:12.337Z,30.38
2022-12-12T08:14:39.033Z,25.67
2022-12-12T08:17:05.453Z,27.90
2022-12-12T08:19:32.236Z,32.60
2022-12-12T08:21:58.855Z,23.98
2022-12-12T08:24:25.488Z,26.45
2022-12-12T08:26:52.378Z,26.10
2022-12-12T08:29:18.789Z,26.73
2022-12-12T08:31:45.515Z,23.23
2022-12-12T08:34:12.195Z,21.55
2022-12-12T08:36:38.575Z,24.73
2022-12-12T08:39:04.890Z,24.17
2022-12-12T08:41:31.477Z,23.02
2022-12-12T08:43:57.827Z,21.65
2022-12-12T08:46:24.208Z,21.63
2022-12-12T08:48:50.661Z,25.60
2022-12-12T08:51:17.498Z,28.23
2022-12-12T08:53:45.094Z,33.60
2022-12-12T08:56:11.587Z,24.02
2022-12-12T08:58:37.954Z,29.83
2022-12-12T09:01:09.749Z,29.60
2022-12-12T09:03:36.110Z,28.90
2022-12-12T09:06:02.520Z,29.83
2022-12-12T09:08:29.018Z,28.52
2022-12-12T09:10:55.570Z,31.83
2022-12-12T09:13:22.168Z,27.77
2022-12-12T09:15:53.617Z,29.13
2022-12-12T09:18:20.167Z,28.98
2022-12-12T09:20:50.354Z,32.67
2022-12-12T09:23:17.646Z,31.38
2022-12-12T09:25:44.119Z,30.50
2022-12-12T09:28:11.438Z,30.02
2022-12-12T09:30:38.462Z,30.77
2022-12-12T09:33:05.252Z,32.22
2022-12-12T09:35:31.762Z,26.42
2022-12-12T09:37:58.185Z,27.00
2022-12-12T09:40:31.875Z,27.08
2022-12-12T09:43:00.090Z,30.77
2022-12-12T09:45:26.933Z,30.70
2022-12-12T09:47:57.022Z,31.77
2022-12-12T09:50:27.474Z,25.35
2022-12-12T09:52:55.478Z,24.55
2022-12-12T09:55:34.070Z,27.02
2022-12-12T09:58:19.417Z,29.17
2022-12-12T10:00:51.764Z,28.73
2022-12-12T10:03:22.562Z,33.10
2022-12-12T10:06:13.608Z,37.35
2022-12-12T10:08:43.294Z,28.35
2022-12-12T10:11:33.030Z,30.23
2022-12-12T10:14:00.628Z,29.20
2022-12-12T10:16:28.654Z,31.95
2022-12-12T10:18:59.016Z,31.35
2022-12-12T10:21:27.619Z,31.02
2022-12-12T10:24:13.594Z,28.35
2022-12-12T10:26:42.824Z,34.90
2022-12-12T10:29:11.173Z,30.15
2022-12-12T10:31:40.688Z,28.63
2022-12-12T10:34:19.647Z,31.98
2022-12-12T10:37:01.091Z,36.20
2022-12-12T10:39:34.733Z,31.40
2022-12-12T10:42:13.973Z,30.20
2022-12-12T10:44:47.241Z,30.35
2022-12-12T10:47:14.411Z,27.73
2022-12-12T10:49:42.108Z,30.38
2022-12-12T10:52:26.671Z,35.22
2022-12-12T10:57:24.666Z,30.30
2022-12-12T10:59:52.855Z,33.80
2022-12-12T11:02:27.881Z,31.80
2022-12-12T11:04:58.205Z,31.42
2022-12-12T11:07:24.850Z,29.90
2022-12-12T11:09:51.222Z,32.15
2022-12-12T11:12:17.609Z,27.30
2022-12-12T11:14:51.841Z,34.03
2022-12-12T11:19:45.526Z,31.60
2022-12-12T11:22:14.491Z,29.45
2022-12-12T11:24:45.143Z,30.33
2022-12-12T11:27:20.709Z,31.60
2022-12-12T11:29:49.086Z,33.20
2022-12-12T11:32:27.094Z,29.58
2022-12-12T11:34:55.754Z,26.98
2022-12-12T11:37:24.587Z,36.22
2022-12-12T11:39:51.985Z,30.85
2022-12-12T11:42:18.369Z,32.05
2022-12-12T11:44:45.304Z,32.47
2022-12-12T11:47:28.640Z,31.23
2022-12-12T11:49:59.579Z,30.48
2022-12-12T11:52:27.428Z,29.65
2022-12-12T11:54:54.664Z,29.83
2022-12-12T11:57:28.607Z,28.30
2022-12-12T12:00:05.994Z,31.05
2022-12-12T12:02:39.568Z,28.02
2022-12-12T12:05:16.448Z,32.00
2022-12-12T12:07:54.421Z,30.50
2022-12-12T12:10:41.367Z,34.55
2022-12-12T12:13:15.822Z,30.60
2022-12-12T12:15:51.451Z,29.00
2022-12-12T12:18:28.026Z,26.83
2022-12-12T12:21:13.813Z,33.22
2022-12-12T12:23:52.161Z,33.85
2022-12-12T12:26:37.375Z,29.98
2022-12-12T12:29:04.308Z,29.65
2022-12-12T12:31:31.545Z,32.25
2022-12-12T12:34:08.600Z,31.73
2022-12-12T12:36:40.127Z,30.85
2022-12-12T12:39:15.223Z,27.65
2022-12-12T12:41:55.015Z,27.50
2022-12-12T12:44:35.760Z,29.33
2022-12-12T12:47:19.058Z,29.67
2022-12-12T12:49:57.489Z,26.65
2022-12-12T12:52:34.382Z,25.90
2022-12-12T12:55:00.954Z,29.70
2022-12-12T12:57:32.946Z,30.42
2022-12-12T13:00:03.477Z,26.85
2022-12-12T13:02:35.783Z,27.65
2022-12-12T13:05:07.108Z,27.05
2022-12-12T13:07:41.232Z,37.03
2022-12-12T13:10:21.641Z,31.35
2022-12-12T13:12:52.641Z,31.05
2022-12-12T13:15:25.448Z,28.27
2022-12-12T13:17:57.851Z,26.17
2022-12-12T13:20:25.779Z,27.25
2022-12-12T13:23:10.974Z,24.92
2022-12-12T13:25:43.158Z,23.73
2022-12-12T13:28:15.599Z,27.83
2022-12-12T13:30:51.139Z,22.08
2022-12-12T13:33:32.766Z,20.85
2022-12-12T13:36:07.430Z,22.83
2022-12-12T13:38:34.421Z,19.38
2022-12-12T13:41:06.305Z,20.67
2022-12-12T13:43:38.882Z,19.20
2022-12-12T13:46:20.719Z,22.13
2022-12-12T13:48:49.574Z,21.65
2022-12-12T13:51:28.258Z,21.65
2022-12-12T13:54:12.256Z,18.23
2022-12-12T13:56:47.014Z,21.40
2022-12-12T13:59:14.563Z,23.88
2022-12-12T14:01:41.023Z,19.58
2022-12-12T14:04:44.490Z,19.58
2022-12-12T14:07:16.449Z,17.80
2022-12-12T14:09:49.316Z,25.02
2022-12-12T14:12:31.122Z,28.30
2022-12-12T14:14:58.836Z,23.30
2022-12-12T14:17:26.455Z,25.95
2022-12-12T14:19:54.389Z,22.77
2022-12-12T14:22:49.608Z,24.63
2022-12-12T14:25:17.204Z,22.75
2022-12-12T14:27:49.782Z,22.08
2022-12-12T14:30:33.460Z,23.05
2022-12-12T14:33:11.613Z,24.03
2022-12-12T14:35:51.366Z,26.63
2022-12-12T14:38:27.626Z,27.60
2022-12-12T14:40:57.081Z,22.80
2022-12-12T14:43:30.742Z,25.30
2022-12-12T14:45:58.611Z,22.73
2022-12-12T14:48:28.632Z,24.75
2022-12-12T14:50:57.525Z,25.70
2022-12-12T14:53:25.234Z,25.20
2022-12-12T14:55:52.995Z,25.63
2022-12-12T14:58:24.542Z,27.75
2022-12-12T15:00:52.590Z,23.80
2022-12-12T15:03:30.822Z,24.52
2022-12-12T15:06:15.962Z,20.02
2022-12-12T15:08:42.843Z,20.45
2022-12-12T15:11:16.504Z,18.52
2022-12-12T15:13:59.785Z,23.25
2022-12-12T15:16:32.242Z,18.30
2022-12-12T15:18:58.961Z,22.52
2022-12-12T15:21:25.479Z,20.30
2022-12-12T15:23:52.124Z,23.63
2022-12-12T15:26:22.256Z,24.20
2022-12-12T15:28:48.998Z,20.42
2022-12-12T15:31:19.715Z,22.50
2022-12-12T15:33:47.321Z,20.92
2022-12-12T15:36:18.126Z,21.83
2022-12-12T15:38:45.393Z,21.00
2022-12-12T15:41:13.707Z,20.95
2022-12-12T15:43:41.087Z,20.75
2022-12-12T15:46:14.835Z,20.73
2022-12-12T15:48:42.377Z,20.45
2022-12-12T15:51:10.063Z,31.88
2022-12-12T15:53:40.621Z,41.30
2022-12-12T15:56:07.139Z,17.88
2022-12-12T15:58:38.400Z,17.95
2022-12-12T16:01:19.901Z,19.60
2022-12-12T16:04:14.146Z,17.05
2022-12-12T16:06:44.613Z,16.48
2022-12-12T16:09:10.968Z,21.10
2022-12-12T16:11:41.208Z,31.23
2022-12-12T16:14:27.485Z,21.55
2022-12-12T16:16:58.676Z,22.30
2022-12-12T16:19:43.439Z,20.63
2022-12-12T16:22:15.942Z,21.38
2022-12-12T16:24:47.212Z,21.88
2022-12-12T16:27:13.606Z,21.90
2022-12-12T16:29:40.015Z,19.77
2022-12-12T16:32:06.514Z,22.00
2022-12-12T16:34:32.973Z,21.58
2022-12-12T16:36:59.360Z,21.05
2022-12-12T16:39:25.800Z,23.38
2022-12-12T16:41:52.227Z,21.73
2022-12-12T16:44:18.598Z,20.67
2022-12-12T16:46:45.053Z,20.90
2022-12-12T16:49:15.274Z,20.63
2022-12-12T16:51:42.242Z,23.13
2022-12-12T16:54:14.667Z,24.63
2022-12-12T16:56:41.242Z,23.98
2022-12-12T16:59:07.655Z,21.33
2022-12-12T17:01:38.698Z,26.48
2022-12-12T17:04:06.807Z,22.83
2022-12-12T17:06:33.339Z,23.10
2022-12-12T17:08:59.719Z,21.40
2022-12-12T17:11:26.243Z,27.27
2022-12-12T17:13:52.684Z,29.52
2022-12-12T17:16:24.175Z,33.00
2022-12-12T17:18:53.842Z,34.95
2022-12-12T17:21:20.280Z,25.38
2022-12-12T17:23:46.641Z,23.25
2022-12-12T17:26:13.274Z,22.92
2022-12-12T17:28:39.781Z,25.17
2022-12-12T17:31:09.477Z,40.72
2022-12-12T17:33:45.803Z,31.65
2022-12-12T17:36:16.593Z,24.85
2022-12-12T17:38:43.027Z,24.95
2022-12-12T17:41:10.702Z,21.88
2022-12-12T17:43:37.583Z,21.75
2022-12-12T17:46:09.507Z,27.42
2022-12-12T17:48:36.678Z,26.85
2022-12-12T17:51:04.715Z,23.67
2022-12-12T17:53:38.562Z,28.13
2022-12-12T17:56:08.295Z,25.75
2022-12-12T17:58:39.181Z,23.00
2022-12-12T18:01:19.525Z,24.98
2022-12-12T18:03:46.105Z,28.20
2022-12-12T18:06:13.035Z,28.40
2022-12-12T18:08:39.956Z,29.98
2022-12-12T18:11:10.659Z,25.90
2022-12-12T18:13:38.687Z,27.85
2022-12-12T18:16:06.079Z,30.27
2022-12-12T18:18:33.118Z,27.35
2022-12-12T18:21:03.966Z,26.50
2022-12-12T18:23:30.802Z,32.97
2022-12-12T18:26:01.487Z,31.38
2022-12-12T18:28:27.935Z,30.13
2022-12-12T18:30:54.341Z,31.05
2022-12-12T18:33:20.814Z,31.83
2022-12-12T18:35:47.227Z,33.13
2022-12-12T18:38:13.766Z,36.95
2022-12-12T18:40:40.308Z,28.90
2022-12-12T18:43:06.970Z,33.20
2022-12-12T18:45:37.264Z,32.65
2022-12-12T18:48:03.758Z,36.63
2022-12-12T18:50:30.287Z,31.10
2022-12-12T18:52:58.666Z,33.30
2022-12-12T18:55:29.890Z,33.75
2022-12-12T18:57:57.097Z,37.00
2022-12-12T19:00:24.252Z,35.85
2022-12-12T19:02:50.853Z,30.23
2022-12-12T19:05:17.373Z,32.28
2022-12-12T19:07:44.104Z,35.65
2022-12-12T19:10:10.478Z,34.03
2022-12-12T19:12:37.277Z,39.78
2022-12-12T19:15:19.705Z,35.30
2022-12-12T19:17:46.196Z,31.80
2022-12-12T19:20:13.022Z,32.13
2022-12-12T19:22:45.330Z,26.75
2022-12-12T19:25:13.362Z,31.52
2022-12-12T19:27:39.842Z,36.55
2022-12-12T19:30:06.597Z,32.38
2022-12-12T19:32:32.989Z,33.45
2022-12-12T19:34:59.854Z,34.55
2022-12-12T19:37:26.282Z,33.97
2022-12-12T19:39:53.202Z,37.83
2022-12-12T19:42:19.932Z,32.80
2022-12-12T19:44:46.300Z,33.70
2022-12-12T19:47:13.293Z,33.38
2022-12-12T19:49:39.917Z,51.13
2022-12-12T19:52:12.176Z,38.92
2022-12-12T19:54:40.528Z,37.03
2022-12-12T19:57:06.908Z,36.10
2022-12-12T19:59:33.417Z,38.22
2022-12-12T20:02:01.063Z,35.80
2022-12-12T20:04:30.042Z,33.97
2022-12-12T20:06:57.001Z,31.80
2022-12-12T20:09:24.442Z,33.50
2022-12-12T20:11:50.925Z,30.92
2022-12-12T20:14:18.744Z,31.80
2022-12-12T20:16:45.118Z,32.17
2022-12-12T20:19:12.083Z,45.92
2022-12-12T20:24:26.592Z,48.15
2022-12-12T20:26:55.137Z,34.40
2022-12-12T20:29:22.331Z,34.67
2022-12-12T20:31:49.714Z,35.38
2022-12-12T20:34:17.225Z,31.50
2022-12-12T20:36:44.215Z,30.85
2022-12-12T20:39:12.263Z,37.47
2022-12-12T20:41:39.502Z,34.15
2022-12-12T20:44:06.633Z,39.05
2022-12-12T20:46:34.187Z,36.15
2022-12-12T20:49:02.049Z,34.67
2022-12-12T20:51:54.570Z,31.40
2022-12-12T20:54:17.278Z,32.67
2022-12-12T20:56:46.353Z,33.38
2022-12-12T20:59:14.286Z,35.20
2022-12-12T21:01:40.907Z,34.60
2022-12-12T21:04:09.276Z,38.30
2022-12-12T21:06:37.086Z,34.42
2022-12-12T21:09:04.793Z,38.45
2022-12-12T21:11:32.074Z,35.92
2022-12-12T21:13:58.468Z,40.83
2022-12-12T21:16:27.347Z,38.75
2022-12-12T21:18:55.082Z,46.92
2022-12-12T21:21:21.786Z,34.72
2022-12-12T21:23:49.416Z,33.08
2022-12-12T21:26:20.531Z,33.70
2022-12-12T21:28:49.413Z,37.00
2022-12-12T21:31:17.880Z,37.35
2022-12-12T21:33:44.827Z,34.78
2022-12-12T21:36:12.747Z,37.42
2022-12-12T21:38:39.613Z,36.92
2022-12-12T21:41:13.209Z,31.80
2022-12-12T21:43:40.163Z,38.30
2022-12-12T21:46:08.940Z,36.05
2022-12-12T21:48:35.386Z,56.72
2022-12-12T21:51:04.980Z,47.90
2022-12-12T21:53:34.749Z,37.50
2022-12-12T21:56:03.552Z,41.75
2022-12-12T21:58:29.941Z,36.35
2022-12-12T22:00:56.360Z,32.63
2022-12-12T22:03:22.872Z,37.08
2022-12-12T22:05:49.297Z,40.70
2022-12-12T22:08:15.953Z,35.00
2022-12-12T22:10:42.326Z,33.97
2022-12-12T22:13:08.762Z,32.80
2022-12-12T22:15:35.201Z,37.42
2022-12-12T22:18:01.550Z,31.77
2022-12-12T22:20:28.053Z,35.17
2022-12-12T22:22:54.537Z,31.05
2022-12-12T22:25:20.985Z,37.17
2022-12-12T22:27:47.316Z,30.02
2022-12-12T22:30:13.840Z,32.45
2022-12-12T22:32:41.516Z,34.58
2022-12-12T22:35:09.653Z,33.63
2022-12-12T22:37:36.039Z,34.88
2022-12-12T22:40:02.503Z,33.88
2022-12-12T22:42:28.976Z,32.70
2022-12-12T22:44:55.402Z,28.95
2022-12-12T22:47:23.706Z,30.83
2022-12-12T22:49:50.262Z,30.85
2022-12-12T22:52:16.642Z,29.75
2022-12-12T22:54:43.008Z,29.65
2022-12-12T22:57:09.440Z,33.58
2022-12-12T22:59:35.974Z,28.10
2022-12-12T23:02:02.327Z,31.95
2022-12-12T23:04:29.174Z,31.35
2022-12-12T23:06:55.695Z,27.98
2022-12-12T23:09:22.941Z,29.50
2022-12-12T23:11:49.471Z,26.75
2022-12-12T23:14:17.209Z,32.58
2022-12-12T23:16:43.877Z,30.15
2022-12-12T23:19:11.420Z,25.20
2022-12-12T23:21:38.160Z,34.20
2022-12-12T23:24:04.984Z,32.78
2022-12-12T23:26:31.991Z,35.63
2022-12-12T23:28:58.996Z,29.58
2022-12-12T23:31:29.931Z,29.42
2022-12-12T23:33:57.662Z,31.77
2022-12-12T23:36:24.284Z,32.22
2022-12-12T23:38:57.101Z,29.90
2022-12-12T23:41:23.657Z,31.73
2022-12-12T23:43:50.866Z,29.05
2022-12-12T23:46:29.481Z,29.80
2022-12-12T23:48:57.194Z,32.70
2022-12-12T23:51:24.252Z,26.55
2022-12-12T23:53:50.751Z,31.13
2022-12-12T23:56:17.442Z,34.88
2022-12-12T23:58:43.900Z,28.38
